createdAt,value
2022-10-22T00:00:06.460Z,1004.7
2022-10-22T00:01:06.462Z,1004.7
2022-10-22T00:02:06.469Z,1004.7
2022-10-22T00:03:06.522Z,1004.7
2022-10-22T00:04:06.465Z,1004.8
2022-10-22T00:05:06.463Z,1004.7
2022-10-22T00:07:06.467Z,1004.7
2022-10-22T00:08:06.471Z,1004.7
2022-10-22T00:09:06.558Z,1004.7
2022-10-22T00:10:06.467Z,1004.7
2022-10-22T00:11:06.463Z,1004.7
2022-10-22T00:12:06.476Z,1004.7
2022-10-22T00:13:06.465Z,1004.8
2022-10-22T00:14:06.471Z,1004.8
2022-10-22T00:16:06.471Z,1004.8
2022-10-22T00:17:10.581Z,1004.8
2022-10-22T00:18:06.557Z,1004.8
2022-10-22T00:20:06.470Z,1004.8
2022-10-22T00:21:06.464Z,1004.7
2022-10-22T00:22:06.476Z,1004.8
2022-10-22T00:23:06.481Z,1004.8
2022-10-22T00:24:06.469Z,1004.8
2022-10-22T00:25:06.469Z,1004.8
2022-10-22T00:26:06.472Z,1004.9
2022-10-22T00:27:06.472Z,1004.9
2022-10-22T00:28:06.471Z,1004.9
2022-10-22T00:29:06.504Z,1004.8
2022-10-22T00:30:06.476Z,1004.8
2022-10-22T00:31:06.467Z,1004.9
2022-10-22T00:33:06.475Z,1004.9
2022-10-22T00:34:06.476Z,1005
2022-10-22T00:35:06.468Z,1004.9
2022-10-22T00:37:06.530Z,1004.9
2022-10-22T00:38:06.477Z,1004.9
2022-10-22T00:39:06.474Z,1004.9
2022-10-22T00:40:06.475Z,1004.9
2022-10-22T00:42:06.476Z,1004.9
2022-10-22T00:43:06.484Z,1004.9
2022-10-22T00:44:06.475Z,1004.9
2022-10-22T00:45:06.475Z,1004.9
2022-10-22T00:46:06.476Z,1004.9
2022-10-22T00:48:06.488Z,1004.9
2022-10-22T00:49:06.501Z,1004.9
2022-10-22T00:51:06.485Z,1004.9
2022-10-22T00:52:06.481Z,1004.9
2022-10-22T00:53:06.479Z,1004.8
2022-10-22T00:55:06.475Z,1004.8
2022-10-22T00:56:06.482Z,1004.8
2022-10-22T00:57:06.484Z,1004.8
2022-10-22T00:59:06.477Z,1004.7
2022-10-22T01:00:06.503Z,1004.7
2022-10-22T01:01:06.650Z,1004.7
2022-10-22T01:02:06.482Z,1004.7
2022-10-22T01:03:06.480Z,1004.7
2022-10-22T01:04:06.479Z,1004.7
2022-10-22T01:05:06.475Z,1004.8
2022-10-22T01:06:06.480Z,1004.8
2022-10-22T01:07:06.505Z,1004.8
2022-10-22T01:09:06.528Z,1004.8
2022-10-22T01:10:06.474Z,1004.8
2022-10-22T01:11:06.481Z,1004.8
2022-10-22T01:12:06.476Z,1004.8
2022-10-22T01:13:06.484Z,1004.9
2022-10-22T01:14:06.479Z,1004.8
2022-10-22T01:15:06.472Z,1004.8
2022-10-22T01:16:06.483Z,1004.8
2022-10-22T01:17:06.476Z,1004.8
2022-10-22T01:18:06.473Z,1004.8
2022-10-22T01:20:06.484Z,1004.7
2022-10-22T01:21:06.478Z,1004.7
2022-10-22T01:22:06.486Z,1004.7
2022-10-22T01:23:06.490Z,1004.7
2022-10-22T01:24:06.481Z,1004.7
2022-10-22T01:25:06.499Z,1004.7
2022-10-22T01:26:06.486Z,1004.7
2022-10-22T01:27:06.488Z,1004.6
2022-10-22T01:28:06.480Z,1004.7
2022-10-22T01:29:06.493Z,1004.7
2022-10-22T01:30:06.505Z,1004.6
2022-10-22T01:31:06.515Z,1004.6
2022-10-22T01:34:06.489Z,1004.6
2022-10-22T01:35:06.485Z,1004.6
2022-10-22T01:37:06.491Z,1004.6
2022-10-22T01:38:06.486Z,1004.5
2022-10-22T01:39:06.488Z,1004.5
2022-10-22T01:41:06.485Z,1004.5
2022-10-22T01:42:06.504Z,1004.6
2022-10-22T01:43:06.507Z,1004.6
2022-10-22T01:45:06.497Z,1004.6
2022-10-22T01:46:06.488Z,1004.6
2022-10-22T01:47:06.486Z,1004.6
2022-10-22T01:48:06.490Z,1004.6
2022-10-22T01:49:06.485Z,1004.6
2022-10-22T01:50:06.484Z,1004.6
2022-10-22T01:52:06.491Z,1004.6
2022-10-22T01:53:06.497Z,1004.5
2022-10-22T01:55:06.509Z,1004.5
2022-10-22T01:56:06.486Z,1004.4
2022-10-22T01:58:06.491Z,1004.5
2022-10-22T01:59:06.498Z,1004.5
2022-10-22T02:00:06.492Z,1004.5
2022-10-22T02:01:06.576Z,1004.5
2022-10-22T02:02:06.519Z,1004.5
2022-10-22T02:03:06.487Z,1004.5
2022-10-22T02:04:06.489Z,1004.5
2022-10-22T02:05:06.485Z,1004.5
2022-10-22T02:06:06.492Z,1004.5
2022-10-22T02:07:06.495Z,1004.4
2022-10-22T02:08:06.492Z,1004.5
2022-10-22T02:09:06.579Z,1004.4
2022-10-22T02:11:06.493Z,1004.4
2022-10-22T02:12:06.574Z,1004.5
2022-10-22T02:13:06.515Z,1004.5
2022-10-22T02:14:06.498Z,1004.5
2022-10-22T02:16:06.492Z,1004.4
2022-10-22T02:17:06.488Z,1004.4
2022-10-22T02:18:06.500Z,1004.5
2022-10-22T02:19:06.499Z,1004.5
2022-10-22T02:20:06.492Z,1004.5
2022-10-22T02:22:06.502Z,1004.5
2022-10-22T02:23:06.502Z,1004.5
2022-10-22T02:24:06.496Z,1004.4
2022-10-22T02:25:06.489Z,1004.5
2022-10-22T02:26:06.499Z,1004.5
2022-10-22T02:27:06.490Z,1004.5
2022-10-22T02:28:06.494Z,1004.5
2022-10-22T02:30:06.563Z,1004.5
2022-10-22T02:31:06.488Z,1004.5
2022-10-22T02:32:06.502Z,1004.5
2022-10-22T02:33:06.530Z,1004.5
2022-10-22T02:34:06.505Z,1004.6
2022-10-22T02:37:06.502Z,1004.6
2022-10-22T02:38:06.504Z,1004.6
2022-10-22T02:39:06.564Z,1004.6
2022-10-22T02:40:06.497Z,1004.6
2022-10-22T02:41:06.520Z,1004.6
2022-10-22T02:42:06.498Z,1004.6
2022-10-22T02:44:06.506Z,1004.6
2022-10-22T02:45:06.573Z,1004.7
2022-10-22T02:46:06.501Z,1004.6
2022-10-22T02:48:06.509Z,1004.6
2022-10-22T02:49:06.498Z,1004.6
2022-10-22T02:50:09.490Z,1004.6
2022-10-22T02:51:06.500Z,1004.7
2022-10-22T02:52:06.504Z,1004.7
2022-10-22T02:53:06.506Z,1004.6
2022-10-22T02:54:06.502Z,1004.6
2022-10-22T02:55:06.511Z,1004.7
2022-10-22T02:56:06.505Z,1004.7
2022-10-22T02:57:06.514Z,1004.7
2022-10-22T02:58:06.500Z,1004.7
2022-10-22T02:59:06.505Z,1004.7
2022-10-22T03:00:06.518Z,1004.7
2022-10-22T03:01:06.554Z,1004.8
2022-10-22T03:02:06.501Z,1004.7
2022-10-22T03:03:06.510Z,1004.7
2022-10-22T03:04:06.534Z,1004.7
2022-10-22T03:05:06.509Z,1004.7
2022-10-22T03:06:06.509Z,1004.7
2022-10-22T03:07:06.505Z,1004.7
2022-10-22T03:10:06.514Z,1004.8
2022-10-22T03:12:06.509Z,1004.8
2022-10-22T03:13:06.507Z,1004.8
2022-10-22T03:14:06.503Z,1004.8
2022-10-22T03:15:06.508Z,1004.8
2022-10-22T03:16:06.503Z,1004.8
2022-10-22T03:17:06.509Z,1004.8
2022-10-22T03:18:06.515Z,1004.7
2022-10-22T03:19:06.517Z,1004.8
2022-10-22T03:20:06.512Z,1004.8
2022-10-22T03:21:06.513Z,1004.8
2022-10-22T03:22:06.517Z,1004.8
2022-10-22T03:23:06.513Z,1004.8
2022-10-22T03:24:06.506Z,1004.8
2022-10-22T03:25:06.510Z,1004.7
2022-10-22T03:26:06.514Z,1004.7
2022-10-22T03:27:06.555Z,1004.8
2022-10-22T03:28:06.572Z,1004.8
2022-10-22T03:30:06.518Z,1004.8
2022-10-22T03:31:06.512Z,1004.7
2022-10-22T03:32:06.577Z,1004.8
2022-10-22T03:33:06.514Z,1004.7
2022-10-22T03:34:06.512Z,1004.7
2022-10-22T03:35:06.539Z,1004.8
2022-10-22T03:36:06.540Z,1004.8
2022-10-22T03:37:06.513Z,1004.8
2022-10-22T03:38:06.519Z,1004.8
2022-10-22T03:39:06.516Z,1004.9
2022-10-22T03:40:06.510Z,1004.9
2022-10-22T03:41:06.519Z,1004.9
2022-10-22T03:43:06.508Z,1004.8
2022-10-22T03:44:06.509Z,1004.9
2022-10-22T03:45:06.519Z,1004.8
2022-10-22T03:46:06.518Z,1004.9
2022-10-22T03:47:06.510Z,1004.9
2022-10-22T03:49:06.550Z,1004.9
2022-10-22T03:50:06.518Z,1004.9
2022-10-22T03:51:06.513Z,1004.9
2022-10-22T03:52:06.534Z,1004.9
2022-10-22T03:54:06.561Z,1004.9
2022-10-22T03:55:06.514Z,1004.9
2022-10-22T03:57:06.522Z,1004.9
2022-10-22T03:58:06.511Z,1005
2022-10-22T03:59:06.540Z,1005
2022-10-22T04:01:06.570Z,1005
2022-10-22T04:02:06.520Z,1005
2022-10-22T04:03:06.535Z,1005
2022-10-22T04:04:06.518Z,1005
2022-10-22T04:05:06.598Z,1005
2022-10-22T04:06:06.545Z,1005
2022-10-22T04:07:06.526Z,1005.1
2022-10-22T04:08:06.528Z,1005
2022-10-22T04:10:06.547Z,1005
2022-10-22T04:11:06.516Z,1005.1
2022-10-22T04:12:06.527Z,1005.1
2022-10-22T04:13:06.520Z,1005
2022-10-22T04:14:06.524Z,1005
2022-10-22T04:15:06.525Z,1005.1
2022-10-22T04:16:06.526Z,1005
2022-10-22T04:17:06.531Z,1005.1
2022-10-22T04:18:06.523Z,1005.1
2022-10-22T04:19:06.529Z,1005.1
2022-10-22T04:20:06.522Z,1005.1
2022-10-22T04:21:06.537Z,1005.1
2022-10-22T04:23:06.520Z,1005.1
2022-10-22T04:24:06.515Z,1005.1
2022-10-22T04:25:06.528Z,1005.1
2022-10-22T04:26:06.529Z,1005.1
2022-10-22T04:27:06.524Z,1005.1
2022-10-22T04:28:06.519Z,1005.2
2022-10-22T04:29:06.975Z,1005.2
2022-10-22T04:30:06.528Z,1005.1
2022-10-22T04:31:06.520Z,1005.2
2022-10-22T04:32:06.518Z,1005.2
2022-10-22T04:33:06.525Z,1005.2
2022-10-22T04:34:06.532Z,1005.2
2022-10-22T04:36:06.538Z,1005.2
2022-10-22T04:37:06.547Z,1005.3
2022-10-22T04:38:06.532Z,1005.3
2022-10-22T04:39:06.541Z,1005.2
2022-10-22T04:40:06.531Z,1005.2
2022-10-22T04:41:06.520Z,1005.2
2022-10-22T04:42:06.531Z,1005.2
2022-10-22T04:44:06.534Z,1005.3
2022-10-22T04:45:06.524Z,1005.3
2022-10-22T04:46:06.525Z,1005.3
2022-10-22T04:47:06.521Z,1005.2
2022-10-22T04:48:06.528Z,1005.2
2022-10-22T04:49:06.525Z,1005.3
2022-10-22T04:50:06.524Z,1005.2
2022-10-22T04:52:06.539Z,1005.3
2022-10-22T04:54:06.521Z,1005.3
2022-10-22T04:55:06.539Z,1005.3
2022-10-22T04:56:06.581Z,1005.3
2022-10-22T04:57:06.532Z,1005.3
2022-10-22T04:58:06.526Z,1005.3
2022-10-22T04:59:06.532Z,1005.3
2022-10-22T05:00:06.533Z,1005.3
2022-10-22T05:01:06.658Z,1005.4
2022-10-22T05:02:06.526Z,1005.3
2022-10-22T05:03:06.536Z,1005.3
2022-10-22T05:04:06.534Z,1005.3
2022-10-22T05:05:06.543Z,1005.4
2022-10-22T05:06:06.578Z,1005.4
2022-10-22T05:07:06.539Z,1005.4
2022-10-22T05:08:06.560Z,1005.4
2022-10-22T05:09:06.620Z,1005.4
2022-10-22T05:10:06.528Z,1005.4
2022-10-22T05:11:06.534Z,1005.5
2022-10-22T05:12:06.548Z,1005.4
2022-10-22T05:13:06.535Z,1005.4
2022-10-22T05:15:06.533Z,1005.4
2022-10-22T05:16:06.532Z,1005.4
2022-10-22T05:17:06.542Z,1005.4
2022-10-22T05:18:06.541Z,1005.4
2022-10-22T05:19:06.545Z,1005.4
2022-10-22T05:20:06.530Z,1005.5
2022-10-22T05:22:06.531Z,1005.5
2022-10-22T05:23:06.544Z,1005.5
2022-10-22T05:24:06.535Z,1005.5
2022-10-22T05:25:06.540Z,1005.5
2022-10-22T05:26:06.543Z,1005.5
2022-10-22T05:27:06.655Z,1005.5
2022-10-22T05:28:06.536Z,1005.5
2022-10-22T05:30:06.529Z,1005.5
2022-10-22T05:31:06.548Z,1005.5
2022-10-22T05:32:06.538Z,1005.5
2022-10-22T05:33:06.539Z,1005.5
2022-10-22T05:34:06.538Z,1005.5
2022-10-22T05:36:06.545Z,1005.5
2022-10-22T05:37:06.533Z,1005.5
2022-10-22T05:38:06.546Z,1005.5
2022-10-22T05:39:06.559Z,1005.5
2022-10-22T05:40:19.165Z,1005.5
2022-10-22T05:41:06.540Z,1005.6
2022-10-22T05:42:06.541Z,1005.5
2022-10-22T05:43:06.547Z,1005.5
2022-10-22T05:44:06.544Z,1005.5
2022-10-22T05:45:06.543Z,1005.5
2022-10-22T05:47:06.537Z,1005.6
2022-10-22T05:48:06.539Z,1005.5
2022-10-22T05:49:06.548Z,1005.6
2022-10-22T05:50:06.543Z,1005.6
2022-10-22T05:52:06.543Z,1005.6
2022-10-22T05:53:06.546Z,1005.6
2022-10-22T05:54:06.562Z,1005.6
2022-10-22T05:55:06.537Z,1005.6
2022-10-22T05:56:06.537Z,1005.6
2022-10-22T05:57:06.551Z,1005.7
2022-10-22T05:58:06.543Z,1005.6
2022-10-22T05:59:06.548Z,1005.7
2022-10-22T06:00:06.539Z,1005.7
2022-10-22T06:01:06.547Z,1005.7
2022-10-22T06:02:06.602Z,1005.7
2022-10-22T06:03:06.555Z,1005.7
2022-10-22T06:05:06.543Z,1005.7
2022-10-22T06:06:06.544Z,1005.7
2022-10-22T06:07:06.544Z,1005.7
2022-10-22T06:08:06.543Z,1005.7
2022-10-22T06:10:06.569Z,1005.7
2022-10-22T06:11:06.553Z,1005.7
2022-10-22T06:12:06.551Z,1005.7
2022-10-22T06:13:06.540Z,1005.8
2022-10-22T06:15:06.546Z,1005.8
2022-10-22T06:16:06.541Z,1005.8
2022-10-22T06:18:06.549Z,1005.8
2022-10-22T06:19:06.547Z,1005.8
2022-10-22T06:20:06.567Z,1005.8
2022-10-22T06:22:06.544Z,1005.9
2022-10-22T06:23:06.555Z,1006
2022-10-22T06:24:06.556Z,1005.9
2022-10-22T06:25:06.551Z,1006
2022-10-22T06:26:06.550Z,1006
2022-10-22T06:27:06.547Z,1006
2022-10-22T06:28:06.550Z,1006
2022-10-22T06:29:06.552Z,1006
2022-10-22T06:30:06.554Z,1006
2022-10-22T06:31:06.552Z,1006.1
2022-10-22T06:32:06.553Z,1006.1
2022-10-22T06:33:06.552Z,1006.1
2022-10-22T06:34:06.555Z,1006.1
2022-10-22T06:36:07.701Z,1006.1
2022-10-22T06:37:06.559Z,1006.1
2022-10-22T06:38:06.567Z,1006.2
2022-10-22T06:39:06.559Z,1006.2
2022-10-22T06:40:06.556Z,1006.2
2022-10-22T06:41:06.586Z,1006.2
2022-10-22T06:43:06.558Z,1006.2
2022-10-22T06:44:06.558Z,1006.3
2022-10-22T06:45:06.555Z,1006.3
2022-10-22T06:46:06.559Z,1006.3
2022-10-22T06:47:06.550Z,1006.2
2022-10-22T06:48:06.552Z,1006.3
2022-10-22T06:49:06.557Z,1006.3
2022-10-22T06:51:06.553Z,1006.4
2022-10-22T06:52:06.570Z,1006.3
2022-10-22T06:54:06.556Z,1006.4
2022-10-22T06:55:06.559Z,1006.4
2022-10-22T06:57:06.560Z,1006.4
2022-10-22T06:58:06.553Z,1006.5
2022-10-22T06:59:06.554Z,1006.4
2022-10-22T07:00:06.556Z,1006.5
2022-10-22T07:01:06.643Z,1006.5
2022-10-22T07:02:06.558Z,1006.5
2022-10-22T07:03:06.575Z,1006.6
2022-10-22T07:04:06.563Z,1006.6
2022-10-22T07:05:06.561Z,1006.5
2022-10-22T07:06:06.564Z,1006.6
2022-10-22T07:07:06.553Z,1006.6
2022-10-22T07:08:06.569Z,1006.6
2022-10-22T07:09:06.707Z,1006.6
2022-10-22T07:10:06.577Z,1006.7
2022-10-22T07:11:06.950Z,1006.7
2022-10-22T07:13:06.573Z,1006.6
2022-10-22T07:15:06.561Z,1006.7
2022-10-22T07:16:06.566Z,1006.7
2022-10-22T07:18:06.566Z,1006.7
2022-10-22T07:19:06.565Z,1006.7
2022-10-22T07:20:06.612Z,1006.7
2022-10-22T07:21:06.557Z,1006.7
2022-10-22T07:22:06.618Z,1006.8
2022-10-22T07:23:06.559Z,1006.7
2022-10-22T07:24:06.649Z,1006.7
2022-10-22T07:25:07.621Z,1006.8
2022-10-22T07:26:06.567Z,1006.8
2022-10-22T07:27:09.429Z,1006.8
2022-10-22T07:28:06.596Z,1006.8
2022-10-22T07:29:06.555Z,1006.8
2022-10-22T07:30:06.566Z,1006.9
2022-10-22T07:31:06.559Z,1006.9
2022-10-22T07:32:06.566Z,1006.9
2022-10-22T07:33:06.561Z,1006.9
2022-10-22T07:34:06.660Z,1006.9
2022-10-22T07:36:06.571Z,1006.9
2022-10-22T07:37:06.563Z,1006.9
2022-10-22T07:39:06.566Z,1007
2022-10-22T07:40:06.568Z,1006.9
2022-10-22T07:41:06.562Z,1007
2022-10-22T07:42:06.566Z,1007
2022-10-22T07:43:06.594Z,1007
2022-10-22T07:44:06.569Z,1007
2022-10-22T07:45:06.565Z,1007
2022-10-22T07:46:06.562Z,1007
2022-10-22T07:47:06.559Z,1007
2022-10-22T07:48:06.565Z,1007
2022-10-22T07:49:06.577Z,1007
2022-10-22T07:50:06.567Z,1007
2022-10-22T07:51:06.644Z,1007
2022-10-22T07:52:06.577Z,1007
2022-10-22T07:53:06.569Z,1007
2022-10-22T07:55:06.569Z,1007
2022-10-22T07:56:06.569Z,1007.1
2022-10-22T07:57:06.567Z,1007.1
2022-10-22T07:58:06.570Z,1007.1
2022-10-22T07:59:06.577Z,1007.1
2022-10-22T08:00:06.576Z,1007.1
2022-10-22T08:01:06.689Z,1007.2
2022-10-22T08:02:06.576Z,1007.2
2022-10-22T08:03:06.572Z,1007.2
2022-10-22T08:04:06.571Z,1007.2
2022-10-22T08:05:06.572Z,1007.2
2022-10-22T08:06:06.564Z,1007.3
2022-10-22T08:08:06.576Z,1007.3
2022-10-22T08:09:06.646Z,1007.3
2022-10-22T08:10:06.573Z,1007.3
2022-10-22T08:11:06.613Z,1007.3
2022-10-22T08:12:06.575Z,1007.3
2022-10-22T08:13:06.568Z,1007.3
2022-10-22T08:16:06.571Z,1007.3
2022-10-22T08:17:06.571Z,1007.4
2022-10-22T08:18:06.580Z,1007.3
2022-10-22T08:19:06.567Z,1007.4
2022-10-22T08:20:06.575Z,1007.4
2022-10-22T08:21:06.578Z,1007.4
2022-10-22T08:22:06.566Z,1007.4
2022-10-22T08:23:06.576Z,1007.4
2022-10-22T08:25:06.580Z,1007.5
2022-10-22T08:26:06.577Z,1007.5
2022-10-22T08:27:06.575Z,1007.5
2022-10-22T08:28:06.581Z,1007.5
2022-10-22T08:29:06.581Z,1007.5
2022-10-22T08:30:06.573Z,1007.5
2022-10-22T08:31:06.615Z,1007.5
2022-10-22T08:32:06.578Z,1007.6
2022-10-22T08:33:06.579Z,1007.5
2022-10-22T08:34:06.571Z,1007.6
2022-10-22T08:36:06.578Z,1007.6
2022-10-22T08:37:06.586Z,1007.6
2022-10-22T08:38:06.573Z,1007.7
2022-10-22T08:39:06.583Z,1007.7
2022-10-22T08:40:06.580Z,1007.7
2022-10-22T08:41:06.594Z,1007.7
2022-10-22T08:42:06.579Z,1007.7
2022-10-22T08:43:06.573Z,1007.7
2022-10-22T08:44:06.581Z,1007.7
2022-10-22T08:45:06.609Z,1007.7
2022-10-22T08:46:06.583Z,1007.8
2022-10-22T08:48:06.585Z,1007.7
2022-10-22T08:49:06.584Z,1007.7
2022-10-22T08:50:06.584Z,1007.8
2022-10-22T08:51:06.634Z,1007.8
2022-10-22T08:53:06.580Z,1007.7
2022-10-22T08:54:06.574Z,1007.8
2022-10-22T08:55:06.578Z,1007.8
2022-10-22T08:57:06.580Z,1007.9
2022-10-22T08:58:06.656Z,1007.8
2022-10-22T08:59:06.650Z,1007.9
2022-10-22T09:00:06.581Z,1007.9
2022-10-22T09:01:06.594Z,1007.9
2022-10-22T09:02:06.591Z,1007.8
2022-10-22T09:03:06.584Z,1007.9
2022-10-22T09:04:06.598Z,1007.9
2022-10-22T09:05:10.136Z,1007.9
2022-10-22T09:06:06.599Z,1007.9
2022-10-22T09:07:06.583Z,1007.9
2022-10-22T09:08:06.583Z,1007.9
2022-10-22T09:09:06.633Z,1007.9
2022-10-22T09:10:06.584Z,1007.9
2022-10-22T09:11:06.592Z,1008
2022-10-22T09:12:06.597Z,1008
2022-10-22T09:13:06.583Z,1007.9
2022-10-22T09:14:06.655Z,1008
2022-10-22T09:16:06.608Z,1008
2022-10-22T09:18:06.586Z,1008
2022-10-22T09:19:06.584Z,1008.1
2022-10-22T09:20:06.591Z,1008
2022-10-22T09:21:06.764Z,1008
2022-10-22T09:22:06.585Z,1008.1
2022-10-22T09:24:06.585Z,1008.1
2022-10-22T09:25:06.583Z,1008.1
2022-10-22T09:26:06.590Z,1008.1
2022-10-22T09:27:06.591Z,1008.1
2022-10-22T09:28:06.587Z,1008.1
2022-10-22T09:29:06.586Z,1008.1
2022-10-22T09:30:06.589Z,1008.1
2022-10-22T09:32:06.586Z,1008.1
2022-10-22T09:33:06.592Z,1008.1
2022-10-22T09:34:06.614Z,1008.1
2022-10-22T09:35:06.591Z,1008.1
2022-10-22T09:37:06.589Z,1008.2
2022-10-22T09:39:06.669Z,1008.2
2022-10-22T09:40:06.592Z,1008.2
2022-10-22T09:41:06.580Z,1008.2
2022-10-22T09:42:06.591Z,1008.2
2022-10-22T09:43:06.586Z,1008.2
2022-10-22T09:45:06.589Z,1008.2
2022-10-22T09:46:06.594Z,1008.2
2022-10-22T09:47:06.624Z,1008.2
2022-10-22T09:48:06.590Z,1008.2
2022-10-22T09:49:06.605Z,1008.2
2022-10-22T09:50:06.595Z,1008.2
2022-10-22T09:51:06.600Z,1008.2
2022-10-22T09:52:06.594Z,1008.3
2022-10-22T09:53:06.593Z,1008.2
2022-10-22T09:54:06.597Z,1008.3
2022-10-22T09:55:06.590Z,1008.3
2022-10-22T09:56:06.605Z,1008.3
2022-10-22T09:57:06.601Z,1008.3
2022-10-22T09:58:06.585Z,1008.4
2022-10-22T10:00:06.618Z,1008.4
2022-10-22T10:02:19.697Z,1008.4
2022-10-22T10:03:06.655Z,1008.4
2022-10-22T10:04:09.664Z,1008.4
2022-10-22T10:05:06.591Z,1008.4
2022-10-22T10:06:06.591Z,1008.4
2022-10-22T10:07:06.590Z,1008.4
2022-10-22T10:08:06.599Z,1008.5
2022-10-22T10:09:06.760Z,1008.5
2022-10-22T10:10:06.596Z,1008.5
2022-10-22T10:11:06.654Z,1008.5
2022-10-22T10:12:06.602Z,1008.5
2022-10-22T10:13:06.597Z,1008.5
2022-10-22T10:15:06.588Z,1008.5
2022-10-22T10:16:06.598Z,1008.5
2022-10-22T10:17:06.595Z,1008.5
2022-10-22T10:18:06.621Z,1008.5
2022-10-22T10:19:06.791Z,1008.6
2022-10-22T10:20:06.602Z,1008.6
2022-10-22T10:21:06.643Z,1008.6
2022-10-22T10:22:06.596Z,1008.6
2022-10-22T10:23:06.612Z,1008.7
2022-10-22T10:24:06.599Z,1008.6
2022-10-22T10:25:06.646Z,1008.7
2022-10-22T10:26:06.600Z,1008.6
2022-10-22T10:28:06.591Z,1008.6
2022-10-22T10:29:06.609Z,1008.7
2022-10-22T10:30:06.605Z,1008.7
2022-10-22T10:32:06.605Z,1008.7
2022-10-22T10:33:06.601Z,1008.7
2022-10-22T10:34:06.598Z,1008.7
2022-10-22T10:35:06.596Z,1008.7
2022-10-22T10:37:06.597Z,1008.7
2022-10-22T10:38:06.610Z,1008.7
2022-10-22T10:39:06.608Z,1008.7
2022-10-22T10:40:06.596Z,1008.8
2022-10-22T10:42:06.606Z,1008.7
2022-10-22T10:43:06.605Z,1008.8
2022-10-22T10:44:06.608Z,1008.7
2022-10-22T10:45:06.607Z,1008.8
2022-10-22T10:46:06.641Z,1008.8
2022-10-22T10:47:06.615Z,1008.8
2022-10-22T10:48:06.609Z,1008.8
2022-10-22T10:50:06.609Z,1008.8
2022-10-22T10:51:06.599Z,1008.8
2022-10-22T10:52:06.608Z,1008.8
2022-10-22T10:53:06.605Z,1008.8
2022-10-22T10:54:06.610Z,1008.8
2022-10-22T10:55:06.609Z,1008.8
2022-10-22T10:56:06.611Z,1008.8
2022-10-22T10:57:06.603Z,1008.8
2022-10-22T10:58:06.604Z,1008.8
2022-10-22T10:59:06.610Z,1008.8
2022-10-22T11:00:06.603Z,1008.8
2022-10-22T11:01:06.624Z,1008.8
2022-10-22T11:03:06.626Z,1008.8
2022-10-22T11:04:06.608Z,1008.9
2022-10-22T11:05:06.611Z,1008.9
2022-10-22T11:07:11.723Z,1008.8
2022-10-22T11:08:06.653Z,1008.9
2022-10-22T11:09:06.690Z,1008.9
2022-10-22T11:10:06.604Z,1008.9
2022-10-22T11:11:06.717Z,1008.8
2022-10-22T11:12:06.633Z,1008.9
2022-10-22T11:14:06.609Z,1008.9
2022-10-22T11:15:06.612Z,1008.8
2022-10-22T11:16:06.610Z,1008.8
2022-10-22T11:17:06.635Z,1008.8
2022-10-22T11:18:06.610Z,1008.8
2022-10-22T11:19:06.607Z,1008.9
2022-10-22T11:20:06.641Z,1008.9
2022-10-22T11:21:06.604Z,1008.9
2022-10-22T11:22:06.607Z,1008.9
2022-10-22T11:24:06.669Z,1008.9
2022-10-22T11:25:06.604Z,1008.9
2022-10-22T11:26:06.612Z,1008.9
2022-10-22T11:27:06.610Z,1008.9
2022-10-22T11:28:10.996Z,1008.9
2022-10-22T11:29:06.619Z,1008.9
2022-10-22T11:30:06.606Z,1008.9
2022-10-22T11:32:06.624Z,1008.9
2022-10-22T11:33:06.616Z,1008.9
2022-10-22T11:34:28.469Z,1008.9
2022-10-22T11:35:06.612Z,1009
2022-10-22T11:36:06.609Z,1009
2022-10-22T11:37:06.615Z,1009
2022-10-22T11:38:06.609Z,1009
2022-10-22T11:39:06.616Z,1009
2022-10-22T11:40:06.620Z,1009
2022-10-22T11:41:06.614Z,1009.1
2022-10-22T11:42:06.615Z,1009
2022-10-22T11:43:06.612Z,1009
2022-10-22T11:45:06.631Z,1009
2022-10-22T11:46:06.628Z,1009
2022-10-22T11:47:06.615Z,1009
2022-10-22T11:48:06.616Z,1009
2022-10-22T11:49:06.629Z,1009.1
2022-10-22T11:50:06.622Z,1009
2022-10-22T11:51:06.639Z,1009
2022-10-22T11:52:06.618Z,1009
2022-10-22T11:53:06.649Z,1009
2022-10-22T11:54:06.617Z,1009
2022-10-22T11:57:06.619Z,1009.1
2022-10-22T11:58:06.672Z,1009
2022-10-22T12:00:06.621Z,1009
2022-10-22T12:01:06.624Z,1009
2022-10-22T12:02:06.618Z,1009
2022-10-22T12:03:06.629Z,1009
2022-10-22T12:04:06.699Z,1009
2022-10-22T12:05:06.622Z,1009.1
2022-10-22T12:06:06.624Z,1009
2022-10-22T12:07:06.616Z,1009
2022-10-22T12:08:06.621Z,1009
2022-10-22T12:09:06.688Z,1009.1
2022-10-22T12:10:06.620Z,1009
2022-10-22T12:11:06.631Z,1009
2022-10-22T12:12:06.620Z,1009
2022-10-22T12:14:06.632Z,1009.1
2022-10-22T12:15:06.623Z,1009
2022-10-22T12:16:06.630Z,1009
2022-10-22T12:17:06.622Z,1009.1
2022-10-22T12:18:06.669Z,1009
2022-10-22T12:19:06.624Z,1009
2022-10-22T12:20:06.718Z,1009
2022-10-22T12:22:06.646Z,1009
2022-10-22T12:24:06.628Z,1009
2022-10-22T12:25:06.626Z,1008.9
2022-10-22T12:26:06.623Z,1008.9
2022-10-22T12:27:06.622Z,1008.9
2022-10-22T12:28:06.623Z,1008.9
2022-10-22T12:29:06.627Z,1008.9
2022-10-22T12:30:06.725Z,1008.9
2022-10-22T12:31:06.629Z,1008.9
2022-10-22T12:32:06.630Z,1008.9
2022-10-22T12:33:06.631Z,1008.8
2022-10-22T12:34:06.631Z,1008.9
2022-10-22T12:35:06.640Z,1008.8
2022-10-22T12:36:06.633Z,1008.8
2022-10-22T12:38:06.622Z,1008.8
2022-10-22T12:39:06.634Z,1008.9
2022-10-22T12:40:06.687Z,1008.8
2022-10-22T12:41:06.635Z,1008.8
2022-10-22T12:43:06.706Z,1008.9
2022-10-22T12:44:06.656Z,1008.8
2022-10-22T12:45:06.634Z,1008.8
2022-10-22T12:47:06.626Z,1008.8
2022-10-22T12:48:06.638Z,1008.8
2022-10-22T12:49:06.627Z,1008.8
2022-10-22T12:50:06.636Z,1008.7
2022-10-22T12:51:06.631Z,1008.8
2022-10-22T12:52:08.750Z,1008.8
2022-10-22T12:53:06.654Z,1008.8
2022-10-22T12:54:06.636Z,1008.8
2022-10-22T12:55:06.633Z,1008.7
2022-10-22T12:56:06.634Z,1008.8
2022-10-22T12:57:06.638Z,1008.7
2022-10-22T12:59:06.641Z,1008.7
2022-10-22T13:00:06.641Z,1008.7
2022-10-22T13:01:06.755Z,1008.7
2022-10-22T13:02:09.073Z,1008.7
2022-10-22T13:03:06.633Z,1008.7
2022-10-22T13:04:06.631Z,1008.7
2022-10-22T13:05:06.646Z,1008.7
2022-10-22T13:06:06.637Z,1008.7
2022-10-22T13:07:06.636Z,1008.7
2022-10-22T13:08:06.634Z,1008.7
2022-10-22T13:09:06.712Z,1008.8
2022-10-22T13:10:06.638Z,1008.8
2022-10-22T13:11:06.640Z,1008.8
2022-10-22T13:12:06.645Z,1008.8
2022-10-22T13:13:06.644Z,1008.9
2022-10-22T13:14:06.649Z,1008.8
2022-10-22T13:15:06.647Z,1008.8
2022-10-22T13:16:06.635Z,1008.9
2022-10-22T13:17:06.644Z,1008.9
2022-10-22T13:18:06.671Z,1008.8
2022-10-22T13:20:06.647Z,1008.9
2022-10-22T13:22:06.649Z,1008.9
2022-10-22T13:23:06.641Z,1008.9
2022-10-22T13:24:06.671Z,1008.9
2022-10-22T13:25:06.647Z,1008.9
2022-10-22T13:26:06.649Z,1008.9
2022-10-22T13:27:06.645Z,1008.9
2022-10-22T13:28:06.656Z,1008.9
2022-10-22T13:29:06.640Z,1008.9
2022-10-22T13:30:06.673Z,1008.9
2022-10-22T13:31:06.645Z,1008.9
2022-10-22T13:32:06.643Z,1009
2022-10-22T13:33:06.697Z,1009
2022-10-22T13:35:06.675Z,1009
2022-10-22T13:36:06.652Z,1009
2022-10-22T13:37:06.641Z,1009
2022-10-22T13:38:06.648Z,1009
2022-10-22T13:39:06.645Z,1009
2022-10-22T13:41:06.645Z,1009
2022-10-22T13:42:06.648Z,1009
2022-10-22T13:43:06.647Z,1009
2022-10-22T13:44:06.659Z,1009
2022-10-22T13:45:06.656Z,1009
2022-10-22T13:46:06.652Z,1009
2022-10-22T13:47:06.692Z,1008.9
2022-10-22T13:48:06.648Z,1009
2022-10-22T13:49:06.647Z,1009
2022-10-22T13:50:06.643Z,1009
2022-10-22T13:51:06.646Z,1009
2022-10-22T13:52:06.696Z,1009
2022-10-22T13:53:06.651Z,1009
2022-10-22T13:54:06.686Z,1009
2022-10-22T13:56:06.655Z,1009
2022-10-22T13:57:06.647Z,1009.1
2022-10-22T13:58:06.739Z,1009.1
2022-10-22T13:59:06.660Z,1009.1
2022-10-22T14:00:06.650Z,1009
2022-10-22T14:01:06.703Z,1009.1
2022-10-22T14:02:06.659Z,1009
2022-10-22T14:03:06.652Z,1009.1
2022-10-22T14:04:06.656Z,1009.1
2022-10-22T14:05:06.657Z,1009.1
2022-10-22T14:06:06.655Z,1009.1
2022-10-22T14:07:06.649Z,1009.1
2022-10-22T14:08:06.653Z,1009.1
2022-10-22T14:09:06.735Z,1009.1
2022-10-22T14:10:06.656Z,1009.1
2022-10-22T14:11:06.665Z,1009.1
2022-10-22T14:12:06.660Z,1009.1
2022-10-22T14:13:06.656Z,1009.1
2022-10-22T14:14:06.653Z,1009.1
2022-10-22T14:15:06.665Z,1009.1
2022-10-22T14:17:06.660Z,1009.1
2022-10-22T14:18:06.655Z,1009.1
2022-10-22T14:19:06.721Z,1009.1
2022-10-22T14:20:06.660Z,1009.1
2022-10-22T14:21:06.651Z,1009.1
2022-10-22T14:22:06.655Z,1009.1
2022-10-22T14:23:06.714Z,1009.2
2022-10-22T14:24:08.438Z,1009.2